Dorchester, New Jersey
Current Conditions -  °F | °C
As of 2:54 PM on Wednesday 17 Dec 2014 (Local Time) from KMIV Reporting Station
Overcast Overcast  
Wind Chill: 51°   Ceiling: 4500
Heat Index: 51°   Visibility: 10mi
Dew Point: 38°   Wind: 10mph
Humidity: 61%   Direction: 280°W
Pressure: 29.9"   Gusts: NA
Location:  39.27°N, 74.98°W
Report Text: KMIV 171954Z AUTO 28009KT 10SM OVC045 11/03 A2990 RMK AO2 SLP124 T01060033
Loading
Personal Weather Stations






























Interactive Weather Map New forecast layout! Learn more

10-Day Weather Forecast

Advertisements
Track Severe Weather on mobile